Time;durP1;ratioP1;P1;durP2;ratioP2;P2;SDS_P1;SDS_P2;PMS_P1;PMS_P2;Temp;Humidity;BMP_temperature;BMP_pressure;BME280_temperature;BME280_humidity;BME280_pressure;Samples;Min_cycle;Max_cycle;Signal;HPM_P1;HPM_P2
2022/05/07 00:04:18;;;;;;;7.50;5.10;;;16.30;77.10;;;;;;10943904;32;20354;-73
2022/05/07 00:10:20;;;;;;;8.20;6.32;;;16.30;77.10;;;;;;10943656;32;20303;-73
2022/05/07 00:22:42;;;;;;;11.25;6.43;;;16.20;77.10;;;;;;10940542;32;20042;-73
2022/05/07 00:28:47;;;;;;;9.85;7.45;;;16.30;77.20;;;;;;10929647;32;20023;-73
2022/05/07 00:34:50;;;;;;;7.47;5.78;;;16.30;77.20;;;;;;10942967;32;20374;-73
2022/05/07 00:40:53;;;;;;;7.50;6.07;;;16.30;77.30;;;;;;10929264;32;20015;-71
2022/05/07 00:47:19;;;;;;;7.78;6.18;;;16.30;77.30;;;;;;10941920;32;20383;-73
2022/05/07 00:53:22;;;;;;;9.05;6.93;;;16.30;77.30;;;;;;10790428;33;20377;-73
2022/05/07 00:59:47;;;;;;;8.77;6.10;;;16.30;77.50;;;;;;10789243;33;20024;-70
2022/05/07 01:05:49;;;;;;;9.82;6.62;;;16.30;77.40;;;;;;10789153;33;20324;-70
2022/05/07 01:11:52;;;;;;;8.23;6.30;;;16.30;77.60;;;;;;10789911;33;20058;-71
2022/05/07 01:17:55;;;;;;;8.38;6.78;;;16.20;77.60;;;;;;10788966;33;20020;-71
2022/05/07 01:23:59;;;;;;;8.35;5.93;;;16.30;77.70;;;;;;10790939;33;20344;-71
2022/05/07 01:30:03;;;;;;;8.95;6.37;;;16.20;77.60;;;;;;10911648;32;20384;-70
2022/05/07 01:36:16;;;;;;;11.00;7.20;;;16.20;77.60;;;;;;10949326;32;20059;-70
2022/05/07 01:42:19;;;;;;;7.60;5.82;;;16.20;77.60;;;;;;10945674;32;20043;-71
2022/05/07 01:48:22;;;;;;;8.30;5.47;;;16.20;77.60;;;;;;10948807;32;20022;-70
2022/05/07 01:54:24;;;;;;;8.52;6.95;;;16.10;77.60;;;;;;10948559;32;20043;-71
2022/05/07 02:00:27;;;;;;;9.40;6.60;;;16.10;77.60;;;;;;10948447;32;20051;-70
2022/05/07 02:06:30;;;;;;;9.95;5.95;;;16.00;77.60;;;;;;10948087;32;20027;-71
2022/05/07 02:12:32;;;;;;;10.10;7.87;;;16.10;77.80;;;;;;10947979;32;20019;-71
2022/05/07 02:18:35;;;;;;;7.60;5.28;;;16.10;77.70;;;;;;10947793;32;20018;-71
2022/05/07 02:24:37;;;;;;;7.55;5.25;;;16.10;77.70;;;;;;10947436;32;20351;-70
2022/05/07 02:30:41;;;;;;;7.50;4.95;;;16.10;77.80;;;;;;10947359;32;20429;-71
2022/05/07 02:36:43;;;;;;;11.45;8.38;;;16.20;77.90;;;;;;10946706;32;20057;-70
2022/05/07 02:42:45;;;;;;;8.88;7.07;;;16.20;77.90;;;;;;10924908;32;20331;-70
2022/05/07 02:49:13;;;;;;;10.60;6.70;;;16.10;78.00;;;;;;10909442;32;20042;-70
2022/05/07 02:55:16;;;;;;;9.77;7.30;;;16.10;78.00;;;;;;10908856;32;20334;-71
2022/05/07 03:01:18;;;;;;;9.35;6.65;;;16.10;77.90;;;;;;10908536;32;20105;-71
2022/05/07 03:07:21;;;;;;;9.73;7.70;;;16.10;77.90;;;;;;10908268;32;20012;-70
2022/05/07 03:13:24;;;;;;;8.75;6.70;;;16.10;77.90;;;;;;10908086;32;20024;-71
2022/05/07 03:19:26;;;;;;;12.30;8.95;;;16.00;78.00;;;;;;10907775;32;20062;-71
2022/05/07 03:25:28;;;;;;;11.27;8.13;;;16.00;78.00;;;;;;10907246;32;20053;-70
2022/05/07 03:31:30;;;;;;;10.43;7.97;;;16.00;77.90;;;;;;10905258;32;20019;-70
2022/05/07 03:37:33;;;;;;;11.80;9.00;;;16.00;78.00;;;;;;10904392;32;20426;-70
2022/05/07 03:43:37;;;;;;;10.77;8.15;;;16.00;78.00;;;;;;10906899;32;20055;-70
2022/05/07 03:49:40;;;;;;;10.18;7.57;;;16.00;78.00;;;;;;10906282;32;20042;-70
2022/05/07 03:55:42;;;;;;;13.38;8.98;;;16.00;78.10;;;;;;10904458;32;20028;-70
2022/05/07 04:01:45;;;;;;;11.32;9.40;;;16.00;78.10;;;;;;10906487;32;20027;-69
2022/05/07 04:07:48;;;;;;;12.55;8.50;;;15.90;78.10;;;;;;10902953;32;20042;-70
2022/05/07 04:13:51;;;;;;;8.77;6.15;;;16.00;78.20;;;;;;10903505;32;20027;-69
2022/05/07 04:19:54;;;;;;;14.18;10.85;;;15.90;78.20;;;;;;10904810;32;20046;-70
2022/05/07 04:25:57;;;;;;;12.80;9.13;;;15.90;78.10;;;;;;10905526;32;20439;-69
2022/05/07 04:31:59;;;;;;;10.93;8.23;;;15.90;78.10;;;;;;10905422;32;20019;-69
2022/05/07 04:38:01;;;;;;;12.20;9.30;;;15.90;78.10;;;;;;10903055;32;20018;-70
2022/05/07 04:44:05;;;;;;;17.42;11.85;;;15.90;78.00;;;;;;10905047;32;20015;-70
2022/05/07 04:50:08;;;;;;;12.63;9.27;;;15.90;78.10;;;;;;10904914;32;20031;-70
2022/05/07 04:56:11;;;;;;;12.98;10.18;;;15.90;78.00;;;;;;10904732;32;20019;-70
2022/05/07 05:02:15;;;;;;;14.20;11.70;;;15.80;78.00;;;;;;10904428;32;20035;-70
2022/05/07 05:08:20;;;;;;;17.02;12.43;;;15.90;78.00;;;;;;10902628;32;20042;-70
2022/05/07 05:21:15;;;;;;;13.77;9.63;;;15.80;78.00;;;;;;10901317;32;20023;-70
2022/05/07 05:27:19;;;;;;;19.27;10.88;;;15.80;78.00;;;;;;10896712;32;20023;-70
2022/05/07 05:33:22;;;;;;;19.17;15.02;;;15.80;78.10;;;;;;10900428;32;20375;-69
2022/05/07 05:39:27;;;;;;;16.05;13.10;;;15.80;78.10;;;;;;10900819;32;20094;-69
2022/05/07 05:45:53;;;;;;;19.10;14.48;;;15.90;78.10;;;;;;10863501;32;20050;-69
2022/05/07 05:51:56;;;;;;;17.23;13.62;;;15.90;78.20;;;;;;10894002;32;20153;-70
2022/05/07 05:57:58;;;;;;;24.90;14.23;;;15.80;78.20;;;;;;10899823;32;20331;-70
2022/05/07 06:04:03;;;;;;;21.45;15.07;;;15.80;78.30;;;;;;10899691;32;20031;-70
2022/05/07 06:10:08;;;;;;;17.83;15.85;;;15.80;78.50;;;;;;10901363;32;20023;-70
2022/05/07 06:16:10;;;;;;;15.35;12.45;;;15.90;78.50;;;;;;10939991;27;20061;-69
2022/05/07 06:22:12;;;;;;;22.20;12.35;;;15.90;78.60;;;;;;10947717;32;20015;-69
2022/05/07 06:28:17;;;;;;;15.02;12.13;;;15.80;78.60;;;;;;10947408;32;20054;-69
2022/05/07 06:34:22;;;;;;;17.25;10.63;;;15.90;78.60;;;;;;10936483;32;20387;-69
2022/05/07 06:40:25;;;;;;;15.73;12.68;;;15.90;78.60;;;;;;10947015;32;20037;-69
2022/05/07 06:46:27;;;;;;;17.33;12.43;;;15.90;78.70;;;;;;10944267;32;20073;-69
2022/05/07 06:52:47;;;;;;;17.90;10.93;;;16.00;78.50;;;;;;10945795;32;20399;-70
2022/05/07 06:58:50;;;;;;;14.98;12.40;;;16.00;78.60;;;;;;10909642;32;20050;-69
2022/05/07 07:04:54;;;;;;;11.60;10.27;;;15.90;78.70;;;;;;10909032;32;20032;-69
2022/05/07 07:11:09;;;;;;;14.32;11.10;;;15.90;78.90;;;;;;10944792;32;20097;-69
2022/05/07 07:17:11;;;;;;;13.77;10.82;;;16.00;78.90;;;;;;10945838;32;20339;-69
2022/05/07 07:23:14;;;;;;;15.23;10.55;;;16.00;79.00;;;;;;10931452;32;20026;-69
2022/05/07 07:29:16;;;;;;;13.52;9.82;;;16.00;79.00;;;;;;10944158;32;20023;-69
2022/05/07 07:35:17;;;;;;;13.00;9.63;;;16.10;79.00;;;;;;10944265;32;20027;-69
2022/05/07 07:41:19;;;;;;;10.70;8.70;;;16.10;79.10;;;;;;10918507;32;20043;-70
2022/05/07 07:53:47;;;;;;;13.55;9.27;;;16.20;79.20;;;;;;10934659;32;20054;-70
2022/05/07 08:00:11;;;;;;;13.13;8.18;;;16.20;79.40;;;;;;10923550;32;20349;-70
2022/05/07 08:06:14;;;;;;;9.25;6.53;;;16.30;79.50;;;;;;10927507;32;20042;-70
2022/05/07 08:12:16;;;;;;;10.13;7.37;;;16.30;79.50;;;;;;10944716;32;20024;-71
2022/05/07 08:18:19;;;;;;;10.00;7.85;;;16.30;79.70;;;;;;10944454;32;20008;-71
2022/05/07 08:24:21;;;;;;;9.30;6.15;;;16.30;79.60;;;;;;10943955;32;20057;-70
2022/05/07 08:30:24;;;;;;;6.97;4.93;;;16.30;79.90;;;;;;10943859;32;20409;-70
2022/05/07 08:36:26;;;;;;;6.75;5.12;;;16.40;79.80;;;;;;10943423;32;20023;-69
2022/05/07 08:42:29;;;;;;;6.87;4.43;;;16.50;79.60;;;;;;10943119;32;20027;-70
2022/05/07 08:48:33;;;;;;;7.12;4.90;;;16.70;79.50;;;;;;10943147;32;20027;-69
2022/05/07 08:54:35;;;;;;;7.62;4.90;;;16.70;79.40;;;;;;10938828;32;20027;-70
2022/05/07 09:00:38;;;;;;;7.55;4.50;;;16.80;79.30;;;;;;10905696;32;20356;-69
2022/05/07 09:06:40;;;;;;;7.50;4.50;;;16.90;79.10;;;;;;10908311;32;20031;-70
2022/05/07 09:12:44;;;;;;;7.05;5.03;;;17.00;79.10;;;;;;10929476;32;20058;-69
2022/05/07 09:18:50;;;;;;;9.32;5.90;;;17.10;79.10;;;;;;10901734;32;20051;-70
2022/05/07 09:24:54;;;;;;;7.65;5.07;;;17.20;79.30;;;;;;10902122;32;20042;-70
2022/05/07 09:30:57;;;;;;;9.18;7.20;;;17.20;79.30;;;;;;10904655;32;20023;-70
2022/05/07 09:36:59;;;;;;;9.02;5.68;;;17.30;79.30;;;;;;10905171;32;20422;-70
2022/05/07 09:43:02;;;;;;;8.82;7.15;;;17.30;79.30;;;;;;10905143;32;20324;-70
2022/05/07 09:49:05;;;;;;;11.63;7.80;;;17.50;79.30;;;;;;10910833;32;20027;-70
2022/05/07 10:01:47;;;;;;;8.73;6.78;;;17.60;79.00;;;;;;10911572;32;20288;-70
2022/05/07 10:08:22;;;;;;;8.65;6.60;;;17.70;79.00;;;;;;10908673;32;20351;-70
2022/05/07 10:14:30;;;;;;;9.40;7.12;;;17.80;78.80;;;;;;10914103;32;20338;-70
2022/05/07 10:20:43;;;;;;;10.07;8.00;;;17.90;78.60;;;;;;10927277;32;20023;-70
2022/05/07 10:26:45;;;;;;;9.30;6.65;;;18.00;78.60;;;;;;10933929;32;20030;-70
2022/05/07 10:33:02;;;;;;;11.93;8.55;;;18.00;78.50;;;;;;10937836;32;20089;-70
2022/05/07 10:39:08;;;;;;;8.77;6.10;;;18.00;78.50;;;;;;10944302;32;20395;-70
2022/05/07 10:45:40;;;;;;;10.80;7.18;;;18.00;78.40;;;;;;10924699;32;20053;-70
2022/05/07 10:51:50;;;;;;;10.23;7.53;;;18.10;78.30;;;;;;10946437;32;20057;-70
2022/05/07 10:58:12;;;;;;;;;;;18.10;78.20;;;;;;10946926;32;20007;-72
2022/05/07 11:04:43;;;;;;;9.88;6.90;;;18.10;78.00;;;;;;10946257;32;19922;-71
2022/05/07 11:10:45;;;;;;;12.57;8.82;;;18.10;77.80;;;;;;10945895;32;20027;-72
2022/05/07 11:16:47;;;;;;;9.93;6.85;;;18.20;77.60;;;;;;10946008;32;20011;-72
2022/05/07 11:22:59;;;;;;;9.27;7.60;;;18.20;77.70;;;;;;10944518;32;20053;-71
2022/05/07 11:29:01;;;;;;;9.52;7.90;;;18.20;77.60;;;;;;10945307;32;20391;-71
2022/05/07 11:35:03;;;;;;;13.05;9.93;;;18.20;77.70;;;;;;10945136;32;20028;-70
2022/05/07 11:41:10;;;;;;;10.93;8.02;;;18.20;77.70;;;;;;10944873;32;20331;-70
2022/05/07 11:47:23;;;;;;;10.98;9.35;;;18.30;77.70;;;;;;10940290;32;20065;-71
2022/05/07 11:53:35;;;;;;;11.38;9.50;;;18.40;77.60;;;;;;10944658;32;20007;-70
2022/05/07 11:59:44;;;;;;;7.75;5.25;;;18.40;77.40;;;;;;10944265;32;20038;-72
2022/05/07 12:05:48;;;;;;;8.45;6.55;;;18.40;77.50;;;;;;10943915;32;20014;-72
2022/05/07 12:11:51;;;;;;;8.05;6.05;;;18.50;77.40;;;;;;10943168;32;20019;-71
2022/05/07 12:17:55;;;;;;;8.80;6.25;;;18.60;77.20;;;;;;10943649;32;20054;-71
2022/05/07 12:30:18;;;;;;;7.18;4.57;;;18.90;76.90;;;;;;10943582;32;20055;-70
2022/05/07 12:36:29;;;;;;;4.28;3.40;;;19.00;76.50;;;;;;10943286;32;20041;-70
2022/05/07 12:42:32;;;;;;;5.12;3.20;;;19.20;76.30;;;;;;10942991;32;20019;-70
2022/05/07 12:48:34;;;;;;;6.80;3.53;;;19.20;75.80;;;;;;10943073;32;20015;-71
2022/05/07 12:54:38;;;;;;;4.68;2.85;;;19.10;75.60;;;;;;10943077;32;20045;-70
2022/05/07 13:00:41;;;;;;;5.43;2.90;;;19.20;75.70;;;;;;10942542;32;20041;-71
2022/05/07 13:06:43;;;;;;;3.85;2.75;;;19.20;75.60;;;;;;10923928;32;20066;-71
2022/05/07 13:12:55;;;;;;;12.35;2.62;;;19.30;75.20;;;;;;10904447;32;20050;-70
2022/05/07 13:18:57;;;;;;;4.15;3.05;;;19.30;74.80;;;;;;10929052;32;20446;-70
2022/05/07 13:24:59;;;;;;;4.78;3.22;;;19.40;74.70;;;;;;10933343;32;20022;-71
2022/05/07 13:31:02;;;;;;;6.25;2.55;;;19.50;74.30;;;;;;10912276;32;20015;-71
2022/05/07 13:37:04;;;;;;;5.97;3.42;;;19.50;74.30;;;;;;10911937;32;20046;-71
2022/05/07 13:43:16;;;;;;;4.05;2.62;;;19.50;74.20;;;;;;10911607;32;20019;-71
2022/05/07 13:49:19;;;;;;;4.43;2.35;;;19.70;73.80;;;;;;10908495;32;20395;-70
2022/05/07 13:55:22;;;;;;;3.15;2.15;;;19.70;73.50;;;;;;10911282;32;20372;-70
2022/05/07 14:01:24;;;;;;;2.75;1.75;;;19.70;73.40;;;;;;10910885;32;20049;-71
2022/05/07 14:07:28;;;;;;;4.10;2.33;;;19.80;73.30;;;;;;10910601;32;20392;-70
2022/05/07 14:13:30;;;;;;;3.00;2.05;;;19.70;73.10;;;;;;10931629;27;20061;-70
2022/05/07 14:19:33;;;;;;;5.15;2.67;;;19.70;73.30;;;;;;10946900;32;20031;-70
2022/05/07 14:25:45;;;;;;;3.87;2.25;;;19.70;73.00;;;;;;10947104;32;20327;-70
2022/05/07 14:32:05;;;;;;;2.15;1.58;;;19.70;72.60;;;;;;10947257;32;20038;-71
2022/05/07 14:38:08;;;;;;;2.30;1.55;;;19.70;72.50;;;;;;10944608;32;20057;-71
2022/05/07 14:44:12;;;;;;;3.60;2.53;;;19.70;72.50;;;;;;10943253;32;20075;-70
2022/05/07 14:50:14;;;;;;;3.35;1.90;;;19.70;72.30;;;;;;10947439;32;20019;-70
2022/05/07 14:56:17;;;;;;;4.03;2.03;;;19.60;72.30;;;;;;10933828;32;20023;-70
2022/05/07 15:02:19;;;;;;;1.85;1.40;;;19.50;72.20;;;;;;10946972;32;20056;-70
2022/05/07 15:14:45;;;;;;;2.60;1.62;;;19.50;72.30;;;;;;10944854;32;20027;-70
2022/05/07 15:21:08;;;;;;;2.83;1.92;;;19.40;72.20;;;;;;10946234;32;20050;-70
2022/05/07 15:27:13;;;;;;;2.22;1.80;;;19.40;72.10;;;;;;10945859;32;20023;-70
2022/05/07 15:39:39;;;;;;;3.78;1.90;;;19.30;72.20;;;;;;10945390;32;20045;-70
2022/05/07 15:45:41;;;;;;;5.37;2.55;;;19.30;72.30;;;;;;10930962;32;20061;-70
2022/05/07 15:51:43;;;;;;;3.42;2.37;;;19.30;72.10;;;;;;10943771;32;20027;-70
2022/05/07 15:57:45;;;;;;;4.55;2.45;;;19.20;71.80;;;;;;10943144;32;20035;-70
2022/05/07 16:03:47;;;;;;;4.97;2.25;;;19.20;71.90;;;;;;10944688;32;20375;-70
2022/05/07 16:09:50;;;;;;;3.65;2.25;;;19.20;71.90;;;;;;10944452;32;20046;-70
2022/05/07 16:15:57;;;;;;;3.35;2.35;;;19.20;71.80;;;;;;10934034;32;20382;-70
2022/05/07 16:21:59;;;;;;;3.75;2.42;;;19.30;71.90;;;;;;10906404;32;20058;-70
2022/05/07 16:28:01;;;;;;;4.85;2.47;;;19.30;71.80;;;;;;10938203;32;20415;-70
2022/05/07 16:34:03;;;;;;;2.65;1.80;;;19.30;71.90;;;;;;10943608;32;20058;-70
2022/05/07 16:40:07;;;;;;;3.15;2.33;;;19.30;72.00;;;;;;10943455;32;20391;-70
2022/05/07 16:46:18;;;;;;;3.45;2.33;;;19.30;72.10;;;;;;10943231;32;20067;-70
2022/05/07 16:52:20;;;;;;;3.03;2.33;;;19.30;72.40;;;;;;10942812;32;20035;-71
2022/05/07 16:58:22;;;;;;;4.93;3.05;;;19.20;72.40;;;;;;10942699;32;20015;-71
2022/05/07 17:04:28;;;;;;;3.42;2.37;;;19.20;72.50;;;;;;10943043;32;20045;-70
2022/05/07 17:10:30;;;;;;;3.58;2.35;;;19.20;72.60;;;;;;10942833;32;20023;-70
2022/05/07 17:16:32;;;;;;;4.37;3.22;;;19.20;72.80;;;;;;10419503;32;14726665;-71
2022/05/07 17:22:47;;;;;;;3.75;2.58;;;19.10;73.00;;;;;;10864411;32;20336;-70
2022/05/07 17:28:49;;;;;;;3.58;2.17;;;19.00;73.10;;;;;;10863886;32;20058;-71
2022/05/07 17:34:52;;;;;;;3.53;2.40;;;18.90;73.20;;;;;;10864394;32;20043;-71
2022/05/07 17:40:54;;;;;;;3.85;2.83;;;18.90;73.40;;;;;;10918972;32;20413;-71
2022/05/07 17:47:02;;;;;;;3.08;2.08;;;18.80;73.40;;;;;;10942568;32;20015;-71
2022/05/07 17:53:06;;;;;;;3.40;2.15;;;18.80;73.50;;;;;;10942575;32;20022;-71
2022/05/07 17:59:14;;;;;;;4.57;2.62;;;18.80;73.60;;;;;;10939153;32;20050;-71
2022/05/07 18:05:16;;;;;;;4.72;2.65;;;18.80;73.60;;;;;;10942686;32;20050;-69
2022/05/07 18:11:20;;;;;;;3.87;2.97;;;18.80;73.70;;;;;;10949445;32;20437;-71
2022/05/07 18:17:23;;;;;;;3.80;2.10;;;18.70;73.70;;;;;;10950079;32;20331;-69
2022/05/07 18:23:25;;;;;;;7.85;3.65;;;18.70;73.80;;;;;;10929472;32;20057;-69
2022/05/07 18:29:27;;;;;;;4.45;2.65;;;18.60;73.90;;;;;;10949023;32;20023;-71
2022/05/07 18:35:29;;;;;;;4.45;3.30;;;18.50;73.90;;;;;;10948582;32;20049;-71
2022/05/07 18:47:52;;;;;;;4.10;2.78;;;18.50;74.10;;;;;;10944033;32;20026;-70
2022/05/07 18:53:54;;;;;;;3.05;1.98;;;18.40;74.10;;;;;;10934666;32;20421;-71
2022/05/07 18:59:56;;;;;;;4.03;2.50;;;18.40;74.20;;;;;;10948365;32;20046;-71
2022/05/07 19:05:59;;;;;;;4.70;3.33;;;18.30;74.30;;;;;;10947687;32;20019;-71
2022/05/07 19:12:02;;;;;;;4.57;2.95;;;18.30;74.30;;;;;;10947472;32;20019;-71
2022/05/07 19:25:44;;;;;;;4.50;2.58;;;18.20;74.40;;;;;;10758649;33;20160;-71
2022/05/07 19:31:47;;;;;;;11.20;4.78;;;18.20;74.40;;;;;;10757311;33;20412;-71
2022/05/07 19:37:52;;;;;;;14.73;9.55;;;18.20;74.40;;;;;;10756567;33;20028;-71
2022/05/07 19:43:59;;;;;;;4.50;3.33;;;18.20;74.50;;;;;;10756539;33;20033;-71
2022/05/07 19:50:17;;;;;;;9.02;5.85;;;18.20;74.50;;;;;;10757794;33;20025;-71
2022/05/07 19:56:20;;;;;;;7.47;5.40;;;18.20;74.50;;;;;;10756177;33;20059;-71
2022/05/07 20:02:23;;;;;;;7.47;5.05;;;18.20;74.50;;;;;;10921937;32;20408;-71
2022/05/07 20:08:30;;;;;;;9.90;6.72;;;18.20;74.50;;;;;;10944633;32;20103;-71
2022/05/07 20:15:39;;;;;;;6.55;4.18;;;18.10;74.60;;;;;;10942420;32;20045;-71
2022/05/07 20:22:24;;;;;;;8.07;5.28;;;18.20;74.60;;;;;;10944334;32;20033;-73
2022/05/07 20:28:27;;;;;;;8.23;6.07;;;18.10;74.70;;;;;;10827852;32;20036;-73
2022/05/07 20:34:30;;;;;;;7.07;4.70;;;18.10;74.80;;;;;;10822817;32;20024;-73
2022/05/07 20:40:34;;;;;;;9.32;6.85;;;18.10;74.80;;;;;;10826036;32;20039;-72
2022/05/07 20:46:36;;;;;;;11.63;7.75;;;18.10;74.80;;;;;;10826506;32;20028;-73
2022/05/07 20:52:43;;;;;;;10.38;7.12;;;18.00;74.80;;;;;;10827599;32;20439;-73
2022/05/07 20:58:46;;;;;;;16.37;10.73;;;18.00;74.80;;;;;;10826141;32;20348;-72
2022/05/07 21:04:50;;;;;;;14.70;8.27;;;18.00;74.90;;;;;;10923968;32;20464;-73
2022/05/07 21:10:58;;;;;;;10.88;6.62;;;17.90;74.90;;;;;;10942245;32;20019;-73
2022/05/07 21:17:01;;;;;;;8.80;5.57;;;17.90;74.90;;;;;;10942089;32;20429;-73
2022/05/07 21:23:03;;;;;;;15.00;10.60;;;17.80;74.90;;;;;;10925436;32;20018;-73
2022/05/07 21:29:06;;;;;;;11.30;7.78;;;17.80;75.00;;;;;;10941688;32;20336;-72
2022/05/07 21:35:09;;;;;;;7.65;5.12;;;17.80;74.90;;;;;;10941843;32;20418;-72
2022/05/07 21:41:10;;;;;;;11.12;6.15;;;17.80;74.90;;;;;;10942886;32;20019;-73
2022/05/07 21:47:12;;;;;;;6.47;4.60;;;17.80;75.00;;;;;;10948774;32;20049;-73
2022/05/07 21:53:19;;;;;;;9.27;6.00;;;17.80;75.00;;;;;;10935624;32;20057;-73
2022/05/07 21:59:23;;;;;;;7.32;5.18;;;17.70;75.00;;;;;;10948603;32;20022;-73
2022/05/07 22:05:25;;;;;;;7.65;5.12;;;17.70;75.00;;;;;;10948305;32;20022;-74
2022/05/07 22:11:27;;;;;;;7.60;5.30;;;17.70;75.00;;;;;;10953273;27;20038;-73
2022/05/07 22:17:29;;;;;;;7.87;4.68;;;17.70;75.00;;;;;;10948104;32;20090;-72
2022/05/07 22:23:31;;;;;;;7.78;4.93;;;17.70;75.10;;;;;;10947721;32;20359;-72
2022/05/07 22:29:34;;;;;;;7.50;4.57;;;17.70;75.00;;;;;;10947625;32;20049;-73
2022/05/07 22:35:36;;;;;;;6.65;4.47;;;17.70;75.10;;;;;;10947403;32;20027;-72
2022/05/07 22:41:39;;;;;;;6.12;4.12;;;17.70;75.00;;;;;;10946282;32;20045;-73
2022/05/07 22:47:43;;;;;;;7.87;5.72;;;17.70;75.10;;;;;;10944777;32;20418;-73
2022/05/07 22:53:46;;;;;;;6.53;4.90;;;17.70;75.00;;;;;;10946482;32;20331;-73
2022/05/07 22:59:48;;;;;;;6.10;4.25;;;17.60;75.20;;;;;;10946170;32;20411;-73
2022/05/07 23:05:50;;;;;;;8.65;5.75;;;17.60;75.10;;;;;;10932323;32;20023;-73
2022/05/07 23:11:52;;;;;;;8.65;6.37;;;17.60;75.10;;;;;;10946126;32;20488;-73
2022/05/07 23:17:55;;;;;;;6.62;5.03;;;17.60;75.10;;;;;;10933919;32;20018;-74
2022/05/07 23:23:59;;;;;;;6.80;4.40;;;17.60;75.20;;;;;;10945626;32;20061;-73
2022/05/07 23:30:01;;;;;;;7.40;4.68;;;17.60;75.20;;;;;;10945558;32;20049;-73
2022/05/07 23:36:04;;;;;;;8.00;5.00;;;17.60;75.30;;;;;;10945076;32;20023;-73
2022/05/07 23:42:32;;;;;;;7.30;5.18;;;17.60;75.10;;;;;;10944313;32;20041;-74
2022/05/07 23:48:40;;;;;;;7.07;4.55;;;17.60;75.20;;;;;;10944617;32;20393;-73
2022/05/07 23:54:59;;;;;;;6.87;4.60;;;17.60;75.20;;;;;;10944721;32;20057;-73
